sensor_id;sensor_type;location;lat;lon;timestamp;P1;durP1;ratioP1;P2;durP2;ratioP2
15476;SDS011;7840;42.702;23.296;2023-09-18T00:01:58;23.30;;;21.30;;
15476;SDS011;7840;42.702;23.296;2023-09-18T00:04:27;23.13;;;21.13;;
15476;SDS011;7840;42.702;23.296;2023-09-18T00:06:55;25.27;;;23.08;;
15476;SDS011;7840;42.702;23.296;2023-09-18T00:09:22;28.58;;;23.13;;
15476;SDS011;7840;42.702;23.296;2023-09-18T00:11:50;24.92;;;22.73;;
15476;SDS011;7840;42.702;23.296;2023-09-18T00:14:18;25.60;;;23.40;;
15476;SDS011;7840;42.702;23.296;2023-09-18T00:16:45;26.50;;;23.83;;
15476;SDS011;7840;42.702;23.296;2023-09-18T00:19:13;28.08;;;23.67;;
15476;SDS011;7840;42.702;23.296;2023-09-18T00:21:42;27.20;;;24.48;;
15476;SDS011;7840;42.702;23.296;2023-09-18T00:24:09;24.77;;;22.35;;
15476;SDS011;7840;42.702;23.296;2023-09-18T00:26:37;24.67;;;22.58;;
15476;SDS011;7840;42.702;23.296;2023-09-18T00:29:04;24.52;;;22.25;;
15476;SDS011;7840;42.702;23.296;2023-09-18T00:31:32;25.85;;;23.40;;
15476;SDS011;7840;42.702;23.296;2023-09-18T00:33:59;25.77;;;23.60;;
15476;SDS011;7840;42.702;23.296;2023-09-18T00:36:27;25.30;;;22.90;;
15476;SDS011;7840;42.702;23.296;2023-09-18T00:38:56;25.02;;;22.73;;
15476;SDS011;7840;42.702;23.296;2023-09-18T00:41:23;25.42;;;23.13;;
15476;SDS011;7840;42.702;23.296;2023-09-18T00:43:51;26.85;;;24.25;;
15476;SDS011;7840;42.702;23.296;2023-09-18T00:46:19;27.83;;;25.20;;
15476;SDS011;7840;42.702;23.296;2023-09-18T00:48:47;27.27;;;24.58;;
15476;SDS011;7840;42.702;23.296;2023-09-18T00:51:15;27.10;;;24.77;;
15476;SDS011;7840;42.702;23.296;2023-09-18T00:53:43;26.73;;;24.38;;
15476;SDS011;7840;42.702;23.296;2023-09-18T00:56:15;26.05;;;23.70;;
15476;SDS011;7840;42.702;23.296;2023-09-18T00:58:45;26.80;;;24.17;;
15476;SDS011;7840;42.702;23.296;2023-09-18T01:01:13;24.13;;;21.80;;
15476;SDS011;7840;42.702;23.296;2023-09-18T01:03:48;22.70;;;20.55;;
15476;SDS011;7840;42.702;23.296;2023-09-18T01:06:16;23.25;;;20.95;;
15476;SDS011;7840;42.702;23.296;2023-09-18T01:08:45;21.42;;;19.42;;
15476;SDS011;7840;42.702;23.296;2023-09-18T01:11:19;21.25;;;19.52;;
15476;SDS011;7840;42.702;23.296;2023-09-18T01:13:58;19.90;;;18.10;;
15476;SDS011;7840;42.702;23.296;2023-09-18T01:16:35;20.88;;;19.08;;
15476;SDS011;7840;42.702;23.296;2023-09-18T01:19:06;20.23;;;18.48;;
15476;SDS011;7840;42.702;23.296;2023-09-18T01:21:34;20.05;;;18.35;;
15476;SDS011;7840;42.702;23.296;2023-09-18T01:24:04;17.80;;;16.30;;
15476;SDS011;7840;42.702;23.296;2023-09-18T01:26:32;18.85;;;17.15;;
15476;SDS011;7840;42.702;23.296;2023-09-18T01:29:00;18.15;;;16.65;;
15476;SDS011;7840;42.702;23.296;2023-09-18T01:31:27;18.05;;;16.25;;
15476;SDS011;7840;42.702;23.296;2023-09-18T01:33:56;17.90;;;16.17;;
15476;SDS011;7840;42.702;23.296;2023-09-18T01:36:25;17.95;;;16.20;;
15476;SDS011;7840;42.702;23.296;2023-09-18T01:38:53;18.40;;;16.80;;
15476;SDS011;7840;42.702;23.296;2023-09-18T01:41:22;17.10;;;15.52;;
15476;SDS011;7840;42.702;23.296;2023-09-18T01:43:50;17.98;;;16.15;;
15476;SDS011;7840;42.702;23.296;2023-09-18T01:46:18;16.77;;;15.18;;
15476;SDS011;7840;42.702;23.296;2023-09-18T01:48:46;18.02;;;15.75;;
15476;SDS011;7840;42.702;23.296;2023-09-18T01:51:14;16.77;;;15.05;;
15476;SDS011;7840;42.702;23.296;2023-09-18T01:53:41;17.10;;;15.27;;
15476;SDS011;7840;42.702;23.296;2023-09-18T01:56:09;17.75;;;16.00;;
15476;SDS011;7840;42.702;23.296;2023-09-18T01:58:38;17.15;;;15.75;;
15476;SDS011;7840;42.702;23.296;2023-09-18T02:01:08;16.38;;;15.00;;
15476;SDS011;7840;42.702;23.296;2023-09-18T02:03:36;17.05;;;15.32;;
15476;SDS011;7840;42.702;23.296;2023-09-18T02:06:06;16.55;;;14.82;;
15476;SDS011;7840;42.702;23.296;2023-09-18T02:08:34;16.30;;;14.75;;
15476;SDS011;7840;42.702;23.296;2023-09-18T02:11:02;18.02;;;16.30;;
15476;SDS011;7840;42.702;23.296;2023-09-18T02:13:30;18.95;;;16.75;;
15476;SDS011;7840;42.702;23.296;2023-09-18T02:15:58;19.55;;;17.50;;
15476;SDS011;7840;42.702;23.296;2023-09-18T02:18:26;18.40;;;16.80;;
15476;SDS011;7840;42.702;23.296;2023-09-18T02:20:53;19.92;;;17.92;;
15476;SDS011;7840;42.702;23.296;2023-09-18T02:23:21;19.73;;;17.70;;
15476;SDS011;7840;42.702;23.296;2023-09-18T02:25:54;20.77;;;18.77;;
15476;SDS011;7840;42.702;23.296;2023-09-18T02:28:22;20.52;;;18.40;;
15476;SDS011;7840;42.702;23.296;2023-09-18T02:30:50;20.30;;;18.38;;
15476;SDS011;7840;42.702;23.296;2023-09-18T02:33:19;20.83;;;18.83;;
15476;SDS011;7840;42.702;23.296;2023-09-18T02:35:46;20.50;;;18.55;;
15476;SDS011;7840;42.702;23.296;2023-09-18T02:38:14;17.83;;;16.10;;
15476;SDS011;7840;42.702;23.296;2023-09-18T02:40:41;18.80;;;17.15;;
15476;SDS011;7840;42.702;23.296;2023-09-18T02:43:09;18.38;;;16.38;;
15476;SDS011;7840;42.702;23.296;2023-09-18T02:45:36;16.95;;;15.55;;
15476;SDS011;7840;42.702;23.296;2023-09-18T02:48:04;16.95;;;15.05;;
15476;SDS011;7840;42.702;23.296;2023-09-18T02:50:33;16.85;;;15.27;;
15476;SDS011;7840;42.702;23.296;2023-09-18T02:53:00;17.15;;;15.00;;
15476;SDS011;7840;42.702;23.296;2023-09-18T02:55:28;16.60;;;15.20;;
15476;SDS011;7840;42.702;23.296;2023-09-18T02:57:55;16.02;;;14.43;;
15476;SDS011;7840;42.702;23.296;2023-09-18T03:00:24;15.32;;;13.68;;
15476;SDS011;7840;42.702;23.296;2023-09-18T03:02:51;14.88;;;13.40;;
15476;SDS011;7840;42.702;23.296;2023-09-18T03:05:19;15.23;;;13.25;;
15476;SDS011;7840;42.702;23.296;2023-09-18T03:07:48;14.57;;;13.30;;
15476;SDS011;7840;42.702;23.296;2023-09-18T03:10:16;14.35;;;13.07;;
15476;SDS011;7840;42.702;23.296;2023-09-18T03:12:47;14.00;;;12.75;;
15476;SDS011;7840;42.702;23.296;2023-09-18T03:15:14;14.57;;;13.13;;
15476;SDS011;7840;42.702;23.296;2023-09-18T03:17:42;14.43;;;13.13;;
15476;SDS011;7840;42.702;23.296;2023-09-18T03:20:10;14.80;;;13.40;;
15476;SDS011;7840;42.702;23.296;2023-09-18T03:22:37;14.60;;;13.30;;
15476;SDS011;7840;42.702;23.296;2023-09-18T03:25:07;15.63;;;13.93;;
15476;SDS011;7840;42.702;23.296;2023-09-18T03:27:35;16.00;;;14.48;;
15476;SDS011;7840;42.702;23.296;2023-09-18T03:30:03;16.50;;;14.85;;
15476;SDS011;7840;42.702;23.296;2023-09-18T03:32:32;16.30;;;14.23;;
15476;SDS011;7840;42.702;23.296;2023-09-18T03:35:01;16.80;;;15.00;;
15476;SDS011;7840;42.702;23.296;2023-09-18T03:37:29;21.55;;;16.08;;
15476;SDS011;7840;42.702;23.296;2023-09-18T03:39:56;16.95;;;15.43;;
15476;SDS011;7840;42.702;23.296;2023-09-18T03:42:25;18.38;;;16.65;;
15476;SDS011;7840;42.702;23.296;2023-09-18T03:44:53;22.10;;;18.02;;
15476;SDS011;7840;42.702;23.296;2023-09-18T03:47:20;20.02;;;18.00;;
15476;SDS011;7840;42.702;23.296;2023-09-18T03:49:48;17.98;;;16.27;;
15476;SDS011;7840;42.702;23.296;2023-09-18T03:52:15;20.30;;;18.15;;
15476;SDS011;7840;42.702;23.296;2023-09-18T03:54:43;20.02;;;18.20;;
15476;SDS011;7840;42.702;23.296;2023-09-18T03:57:10;20.95;;;18.92;;
15476;SDS011;7840;42.702;23.296;2023-09-18T03:59:39;22.35;;;19.58;;
15476;SDS011;7840;42.702;23.296;2023-09-18T04:02:07;21.83;;;19.70;;
15476;SDS011;7840;42.702;23.296;2023-09-18T04:04:34;21.35;;;19.33;;
15476;SDS011;7840;42.702;23.296;2023-09-18T04:07:05;23.13;;;20.70;;
15476;SDS011;7840;42.702;23.296;2023-09-18T04:09:32;23.70;;;21.35;;
15476;SDS011;7840;42.702;23.296;2023-09-18T04:12:01;25.25;;;22.33;;
15476;SDS011;7840;42.702;23.296;2023-09-18T04:14:30;26.25;;;22.50;;
15476;SDS011;7840;42.702;23.296;2023-09-18T04:17:06;25.52;;;22.92;;
15476;SDS011;7840;42.702;23.296;2023-09-18T04:19:34;24.63;;;22.20;;
15476;SDS011;7840;42.702;23.296;2023-09-18T04:22:01;25.15;;;22.55;;
15476;SDS011;7840;42.702;23.296;2023-09-18T04:24:29;24.00;;;21.50;;
15476;SDS011;7840;42.702;23.296;2023-09-18T04:26:57;25.55;;;22.77;;
15476;SDS011;7840;42.702;23.296;2023-09-18T04:29:24;23.48;;;21.08;;
15476;SDS011;7840;42.702;23.296;2023-09-18T04:31:52;22.20;;;19.88;;
15476;SDS011;7840;42.702;23.296;2023-09-18T04:34:21;25.85;;;20.02;;
15476;SDS011;7840;42.702;23.296;2023-09-18T04:36:48;22.05;;;19.73;;
15476;SDS011;7840;42.702;23.296;2023-09-18T04:39:16;21.77;;;19.52;;
15476;SDS011;7840;42.702;23.296;2023-09-18T04:41:44;22.00;;;19.63;;
15476;SDS011;7840;42.702;23.296;2023-09-18T04:44:12;22.40;;;20.02;;
15476;SDS011;7840;42.702;23.296;2023-09-18T04:46:40;21.08;;;19.05;;
15476;SDS011;7840;42.702;23.296;2023-09-18T04:49:08;24.98;;;19.85;;
15476;SDS011;7840;42.702;23.296;2023-09-18T04:51:38;21.50;;;18.27;;
15476;SDS011;7840;42.702;23.296;2023-09-18T04:54:06;25.30;;;19.63;;
15476;SDS011;7840;42.702;23.296;2023-09-18T04:56:34;22.30;;;19.38;;
15476;SDS011;7840;42.702;23.296;2023-09-18T04:59:02;21.25;;;18.42;;
15476;SDS011;7840;42.702;23.296;2023-09-18T05:01:30;19.90;;;17.80;;
15476;SDS011;7840;42.702;23.296;2023-09-18T05:03:57;28.10;;;18.23;;
15476;SDS011;7840;42.702;23.296;2023-09-18T05:06:25;20.15;;;17.73;;
15476;SDS011;7840;42.702;23.296;2023-09-18T05:08:55;21.08;;;18.88;;
15476;SDS011;7840;42.702;23.296;2023-09-18T05:11:23;20.70;;;18.52;;
15476;SDS011;7840;42.702;23.296;2023-09-18T05:13:51;21.60;;;19.42;;
15476;SDS011;7840;42.702;23.296;2023-09-18T05:16:19;21.83;;;19.50;;
15476;SDS011;7840;42.702;23.296;2023-09-18T05:18:46;24.23;;;20.42;;
15476;SDS011;7840;42.702;23.296;2023-09-18T05:21:16;21.30;;;19.13;;
15476;SDS011;7840;42.702;23.296;2023-09-18T05:23:47;28.17;;;19.50;;
15476;SDS011;7840;42.702;23.296;2023-09-18T05:26:16;21.48;;;19.00;;
15476;SDS011;7840;42.702;23.296;2023-09-18T05:28:44;23.63;;;20.02;;
15476;SDS011;7840;42.702;23.296;2023-09-18T05:31:12;23.92;;;19.20;;
15476;SDS011;7840;42.702;23.296;2023-09-18T05:33:40;20.55;;;18.25;;
15476;SDS011;7840;42.702;23.296;2023-09-18T05:36:08;20.75;;;18.67;;
15476;SDS011;7840;42.702;23.296;2023-09-18T05:38:35;18.73;;;16.95;;
15476;SDS011;7840;42.702;23.296;2023-09-18T05:41:03;18.85;;;16.98;;
15476;SDS011;7840;42.702;23.296;2023-09-18T05:43:32;19.35;;;17.42;;
15476;SDS011;7840;42.702;23.296;2023-09-18T05:46:00;20.50;;;17.48;;
15476;SDS011;7840;42.702;23.296;2023-09-18T05:48:28;19.17;;;17.30;;
15476;SDS011;7840;42.702;23.296;2023-09-18T05:50:56;19.55;;;17.48;;
15476;SDS011;7840;42.702;23.296;2023-09-18T05:53:24;20.38;;;17.63;;
15476;SDS011;7840;42.702;23.296;2023-09-18T05:55:51;20.38;;;18.23;;
15476;SDS011;7840;42.702;23.296;2023-09-18T05:58:21;23.42;;;19.77;;
15476;SDS011;7840;42.702;23.296;2023-09-18T06:00:53;19.88;;;17.83;;
15476;SDS011;7840;42.702;23.296;2023-09-18T06:03:20;20.48;;;18.50;;
15476;SDS011;7840;42.702;23.296;2023-09-18T06:05:48;21.02;;;18.95;;
15476;SDS011;7840;42.702;23.296;2023-09-18T06:08:15;20.55;;;18.60;;
15476;SDS011;7840;42.702;23.296;2023-09-18T06:10:44;20.05;;;18.35;;
15476;SDS011;7840;42.702;23.296;2023-09-18T06:13:11;19.10;;;17.05;;
15476;SDS011;7840;42.702;23.296;2023-09-18T06:15:39;18.73;;;17.00;;
15476;SDS011;7840;42.702;23.296;2023-09-18T06:18:08;20.50;;;18.45;;
15476;SDS011;7840;42.702;23.296;2023-09-18T06:20:35;19.67;;;17.85;;
15476;SDS011;7840;42.702;23.296;2023-09-18T06:23:03;19.35;;;17.33;;
15476;SDS011;7840;42.702;23.296;2023-09-18T06:25:31;17.30;;;15.68;;
15476;SDS011;7840;42.702;23.296;2023-09-18T06:27:58;21.77;;;17.90;;
15476;SDS011;7840;42.702;23.296;2023-09-18T06:30:28;17.90;;;16.15;;
15476;SDS011;7840;42.702;23.296;2023-09-18T06:32:58;17.45;;;15.93;;
15476;SDS011;7840;42.702;23.296;2023-09-18T06:35:27;17.48;;;15.65;;
15476;SDS011;7840;42.702;23.296;2023-09-18T06:37:55;17.30;;;15.48;;
15476;SDS011;7840;42.702;23.296;2023-09-18T06:40:23;17.10;;;15.45;;
15476;SDS011;7840;42.702;23.296;2023-09-18T06:42:51;16.23;;;14.25;;
15476;SDS011;7840;42.702;23.296;2023-09-18T06:45:26;23.00;;;14.80;;
15476;SDS011;7840;42.702;23.296;2023-09-18T06:47:53;16.67;;;14.43;;
15476;SDS011;7840;42.702;23.296;2023-09-18T06:50:21;17.67;;;14.95;;
15476;SDS011;7840;42.702;23.296;2023-09-18T06:52:51;14.95;;;13.45;;
15476;SDS011;7840;42.702;23.296;2023-09-18T06:55:18;14.77;;;13.48;;
15476;SDS011;7840;42.702;23.296;2023-09-18T06:57:47;17.38;;;15.50;;
15476;SDS011;7840;42.702;23.296;2023-09-18T07:00:17;15.75;;;14.13;;
15476;SDS011;7840;42.702;23.296;2023-09-18T07:02:46;16.27;;;14.68;;
15476;SDS011;7840;42.702;23.296;2023-09-18T07:05:14;15.15;;;13.85;;
15476;SDS011;7840;42.702;23.296;2023-09-18T07:07:42;15.10;;;13.63;;
15476;SDS011;7840;42.702;23.296;2023-09-18T07:10:11;15.25;;;13.45;;
15476;SDS011;7840;42.702;23.296;2023-09-18T07:12:38;15.13;;;13.57;;
15476;SDS011;7840;42.702;23.296;2023-09-18T07:15:06;16.48;;;14.70;;
15476;SDS011;7840;42.702;23.296;2023-09-18T07:17:34;15.88;;;14.35;;
15476;SDS011;7840;42.702;23.296;2023-09-18T07:20:02;16.35;;;14.93;;
15476;SDS011;7840;42.702;23.296;2023-09-18T07:22:38;15.77;;;14.00;;
15476;SDS011;7840;42.702;23.296;2023-09-18T07:25:07;15.52;;;13.98;;
15476;SDS011;7840;42.702;23.296;2023-09-18T07:27:36;15.45;;;13.85;;
15476;SDS011;7840;42.702;23.296;2023-09-18T07:30:06;15.50;;;13.90;;
15476;SDS011;7840;42.702;23.296;2023-09-18T07:32:35;15.07;;;13.57;;
15476;SDS011;7840;42.702;23.296;2023-09-18T07:35:05;15.52;;;13.93;;
15476;SDS011;7840;42.702;23.296;2023-09-18T07:37:33;15.50;;;14.10;;
15476;SDS011;7840;42.702;23.296;2023-09-18T07:40:01;15.48;;;13.98;;
15476;SDS011;7840;42.702;23.296;2023-09-18T07:42:30;14.50;;;13.20;;
15476;SDS011;7840;42.702;23.296;2023-09-18T07:44:59;16.15;;;14.63;;
15476;SDS011;7840;42.702;23.296;2023-09-18T07:47:26;15.63;;;14.10;;
15476;SDS011;7840;42.702;23.296;2023-09-18T07:49:54;15.55;;;13.95;;
15476;SDS011;7840;42.702;23.296;2023-09-18T07:52:21;15.50;;;14.07;;
15476;SDS011;7840;42.702;23.296;2023-09-18T07:54:49;14.98;;;13.65;;
15476;SDS011;7840;42.702;23.296;2023-09-18T07:57:16;15.30;;;13.82;;
15476;SDS011;7840;42.702;23.296;2023-09-18T07:59:44;14.68;;;13.38;;
15476;SDS011;7840;42.702;23.296;2023-09-18T08:02:14;14.35;;;12.95;;
15476;SDS011;7840;42.702;23.296;2023-09-18T08:04:42;13.35;;;12.15;;
15476;SDS011;7840;42.702;23.296;2023-09-18T08:07:10;15.70;;;12.77;;
15476;SDS011;7840;42.702;23.296;2023-09-18T08:09:37;15.00;;;13.57;;
15476;SDS011;7840;42.702;23.296;2023-09-18T08:12:05;15.00;;;13.55;;
15476;SDS011;7840;42.702;23.296;2023-09-18T08:14:34;15.10;;;13.70;;
15476;SDS011;7840;42.702;23.296;2023-09-18T08:17:03;15.52;;;13.95;;
15476;SDS011;7840;42.702;23.296;2023-09-18T08:19:33;16.33;;;13.73;;
15476;SDS011;7840;42.702;23.296;2023-09-18T08:22:02;13.90;;;12.70;;
15476;SDS011;7840;42.702;23.296;2023-09-18T08:24:30;14.35;;;13.10;;
15476;SDS011;7840;42.702;23.296;2023-09-18T08:26:57;14.65;;;12.98;;
15476;SDS011;7840;42.702;23.296;2023-09-18T08:29:25;14.02;;;12.70;;
15476;SDS011;7840;42.702;23.296;2023-09-18T08:31:52;13.35;;;12.15;;
15476;SDS011;7840;42.702;23.296;2023-09-18T08:34:20;14.38;;;12.25;;
15476;SDS011;7840;42.702;23.296;2023-09-18T08:36:49;16.58;;;13.70;;
15476;SDS011;7840;42.702;23.296;2023-09-18T08:39:16;12.95;;;11.73;;
15476;SDS011;7840;42.702;23.296;2023-09-18T08:41:44;12.65;;;11.45;;
15476;SDS011;7840;42.702;23.296;2023-09-18T08:44:20;12.48;;;11.38;;
15476;SDS011;7840;42.702;23.296;2023-09-18T08:46:53;12.50;;;11.38;;
15476;SDS011;7840;42.702;23.296;2023-09-18T08:49:21;11.23;;;10.23;;
15476;SDS011;7840;42.702;23.296;2023-09-18T08:51:53;11.65;;;10.55;;
15476;SDS011;7840;42.702;23.296;2023-09-18T08:54:22;11.73;;;10.63;;
15476;SDS011;7840;42.702;23.296;2023-09-18T08:56:50;12.07;;;11.00;;
15476;SDS011;7840;42.702;23.296;2023-09-18T08:59:18;12.40;;;11.13;;
15476;SDS011;7840;42.702;23.296;2023-09-18T09:01:48;12.45;;;11.10;;
15476;SDS011;7840;42.702;23.296;2023-09-18T09:04:16;11.90;;;10.43;;
15476;SDS011;7840;42.702;23.296;2023-09-18T09:06:43;12.18;;;10.40;;
15476;SDS011;7840;42.702;23.296;2023-09-18T09:09:12;12.40;;;11.23;;
15476;SDS011;7840;42.702;23.296;2023-09-18T09:11:40;13.35;;;12.25;;
15476;SDS011;7840;42.702;23.296;2023-09-18T09:14:15;13.00;;;11.30;;
15476;SDS011;7840;42.702;23.296;2023-09-18T09:16:47;13.63;;;11.23;;
15476;SDS011;7840;42.702;23.296;2023-09-18T09:19:15;12.63;;;11.18;;
15476;SDS011;7840;42.702;23.296;2023-09-18T09:21:43;12.65;;;11.23;;
15476;SDS011;7840;42.702;23.296;2023-09-18T09:24:13;12.52;;;11.25;;
15476;SDS011;7840;42.702;23.296;2023-09-18T09:26:41;11.65;;;10.35;;
15476;SDS011;7840;42.702;23.296;2023-09-18T09:29:15;10.18;;;8.85;;
15476;SDS011;7840;42.702;23.296;2023-09-18T09:31:45;9.73;;;8.18;;
15476;SDS011;7840;42.702;23.296;2023-09-18T09:34:16;11.50;;;10.27;;
15476;SDS011;7840;42.702;23.296;2023-09-18T09:36:51;11.15;;;9.98;;
15476;SDS011;7840;42.702;23.296;2023-09-18T09:39:21;10.52;;;9.52;;
15476;SDS011;7840;42.702;23.296;2023-09-18T09:41:51;10.82;;;9.82;;
15476;SDS011;7840;42.702;23.296;2023-09-18T09:44:19;10.93;;;9.77;;
15476;SDS011;7840;42.702;23.296;2023-09-18T09:46:47;10.13;;;9.20;;
15476;SDS011;7840;42.702;23.296;2023-09-18T09:49:16;10.85;;;8.95;;
15476;SDS011;7840;42.702;23.296;2023-09-18T09:51:45;10.85;;;9.30;;
15476;SDS011;7840;42.702;23.296;2023-09-18T09:54:12;10.50;;;9.50;;
15476;SDS011;7840;42.702;23.296;2023-09-18T09:56:42;11.27;;;9.38;;
15476;SDS011;7840;42.702;23.296;2023-09-18T09:59:11;9.70;;;8.77;;
15476;SDS011;7840;42.702;23.296;2023-09-18T10:01:40;10.05;;;9.15;;
15476;SDS011;7840;42.702;23.296;2023-09-18T10:04:10;9.93;;;9.13;;
15476;SDS011;7840;42.702;23.296;2023-09-18T10:06:43;12.00;;;9.60;;
15476;SDS011;7840;42.702;23.296;2023-09-18T10:09:14;9.70;;;8.82;;
15476;SDS011;7840;42.702;23.296;2023-09-18T10:11:45;10.35;;;8.70;;
15476;SDS011;7840;42.702;23.296;2023-09-18T10:14:18;8.15;;;7.25;;
15476;SDS011;7840;42.702;23.296;2023-09-18T10:16:49;7.88;;;7.20;;
15476;SDS011;7840;42.702;23.296;2023-09-18T10:19:25;8.48;;;7.63;;
15476;SDS011;7840;42.702;23.296;2023-09-18T10:22:01;9.38;;;7.13;;
15476;SDS011;7840;42.702;23.296;2023-09-18T10:24:36;11.32;;;8.52;;
15476;SDS011;7840;42.702;23.296;2023-09-18T10:27:07;9.02;;;8.13;;
15476;SDS011;7840;42.702;23.296;2023-09-18T10:29:36;7.78;;;7.10;;
15476;SDS011;7840;42.702;23.296;2023-09-18T10:32:05;7.68;;;6.97;;
15476;SDS011;7840;42.702;23.296;2023-09-18T10:34:34;10.82;;;6.68;;
15476;SDS011;7840;42.702;23.296;2023-09-18T10:37:02;7.65;;;6.95;;
15476;SDS011;7840;42.702;23.296;2023-09-18T10:39:31;6.88;;;6.20;;
15476;SDS011;7840;42.702;23.296;2023-09-18T10:42:02;8.13;;;5.90;;
15476;SDS011;7840;42.702;23.296;2023-09-18T10:44:34;7.10;;;5.80;;
15476;SDS011;7840;42.702;23.296;2023-09-18T10:47:02;6.45;;;5.55;;
15476;SDS011;7840;42.702;23.296;2023-09-18T10:49:33;8.55;;;6.68;;
15476;SDS011;7840;42.702;23.296;2023-09-18T10:52:01;8.45;;;6.85;;
15476;SDS011;7840;42.702;23.296;2023-09-18T10:54:29;7.68;;;6.35;;
15476;SDS011;7840;42.702;23.296;2023-09-18T10:56:58;7.13;;;6.13;;
15476;SDS011;7840;42.702;23.296;2023-09-18T10:59:27;10.70;;;6.50;;
15476;SDS011;7840;42.702;23.296;2023-09-18T11:01:58;6.40;;;5.88;;
15476;SDS011;7840;42.702;23.296;2023-09-18T11:04:30;9.43;;;6.30;;
15476;SDS011;7840;42.702;23.296;2023-09-18T11:07:02;6.82;;;5.68;;
15476;SDS011;7840;42.702;23.296;2023-09-18T11:09:31;9.13;;;5.50;;
15476;SDS011;7840;42.702;23.296;2023-09-18T11:12:07;5.97;;;5.38;;
15476;SDS011;7840;42.702;23.296;2023-09-18T11:17:30;6.30;;;5.20;;
15476;SDS011;7840;42.702;23.296;2023-09-18T11:20:03;6.32;;;5.78;;
15476;SDS011;7840;42.702;23.296;2023-09-18T11:22:35;9.48;;;6.13;;
15476;SDS011;7840;42.702;23.296;2023-09-18T11:28:02;4.90;;;4.50;;
15476;SDS011;7840;42.702;23.296;2023-09-18T11:30:33;6.68;;;5.00;;
15476;SDS011;7840;42.702;23.296;2023-09-18T11:33:03;5.30;;;4.90;;
15476;SDS011;7840;42.702;23.296;2023-09-18T11:35:34;5.50;;;5.05;;
15476;SDS011;7840;42.702;23.296;2023-09-18T11:38:03;10.40;;;5.13;;
15476;SDS011;7840;42.702;23.296;2023-09-18T11:40:35;5.68;;;5.18;;
15476;SDS011;7840;42.702;23.296;2023-09-18T11:43:20;11.68;;;5.20;;
15476;SDS011;7840;42.702;23.296;2023-09-18T11:45:51;5.55;;;5.00;;
15476;SDS011;7840;42.702;23.296;2023-09-18T11:48:21;6.05;;;5.30;;
15476;SDS011;7840;42.702;23.296;2023-09-18T11:50:53;5.75;;;5.15;;
15476;SDS011;7840;42.702;23.296;2023-09-18T11:53:21;8.05;;;5.00;;
15476;SDS011;7840;42.702;23.296;2023-09-18T11:55:51;6.07;;;4.72;;
15476;SDS011;7840;42.702;23.296;2023-09-18T11:58:19;5.55;;;5.05;;
15476;SDS011;7840;42.702;23.296;2023-09-18T12:00:48;8.50;;;4.95;;
15476;SDS011;7840;42.702;23.296;2023-09-18T12:03:17;6.00;;;4.75;;
15476;SDS011;7840;42.702;23.296;2023-09-18T12:05:54;5.07;;;4.57;;
15476;SDS011;7840;42.702;23.296;2023-09-18T12:08:24;5.65;;;4.82;;
15476;SDS011;7840;42.702;23.296;2023-09-18T12:10:52;6.25;;;4.75;;
15476;SDS011;7840;42.702;23.296;2023-09-18T12:13:26;7.85;;;4.70;;
15476;SDS011;7840;42.702;23.296;2023-09-18T12:15:57;5.30;;;4.80;;
15476;SDS011;7840;42.702;23.296;2023-09-18T12:18:25;5.20;;;4.45;;
15476;SDS011;7840;42.702;23.296;2023-09-18T12:20:55;4.97;;;4.47;;
15476;SDS011;7840;42.702;23.296;2023-09-18T12:23:24;6.13;;;5.30;;
15476;SDS011;7840;42.702;23.296;2023-09-18T12:25:56;7.07;;;4.75;;
15476;SDS011;7840;42.702;23.296;2023-09-18T12:28:26;9.18;;;5.28;;
15476;SDS011;7840;42.702;23.296;2023-09-18T12:30:54;5.50;;;4.75;;
15476;SDS011;7840;42.702;23.296;2023-09-18T12:33:24;7.50;;;5.20;;
15476;SDS011;7840;42.702;23.296;2023-09-18T12:35:52;6.88;;;5.05;;
15476;SDS011;7840;42.702;23.296;2023-09-18T12:38:21;8.60;;;5.43;;
15476;SDS011;7840;42.702;23.296;2023-09-18T12:40:52;6.78;;;5.38;;
15476;SDS011;7840;42.702;23.296;2023-09-18T12:43:20;6.53;;;4.80;;
15476;SDS011;7840;42.702;23.296;2023-09-18T12:45:49;6.65;;;4.88;;
15476;SDS011;7840;42.702;23.296;2023-09-18T12:48:18;8.25;;;4.80;;
15476;SDS011;7840;42.702;23.296;2023-09-18T12:50:45;8.02;;;5.00;;
15476;SDS011;7840;42.702;23.296;2023-09-18T12:53:21;6.93;;;4.70;;
15476;SDS011;7840;42.702;23.296;2023-09-18T12:55:50;6.00;;;4.47;;
15476;SDS011;7840;42.702;23.296;2023-09-18T12:58:18;5.65;;;4.82;;
15476;SDS011;7840;42.702;23.296;2023-09-18T13:00:46;5.72;;;4.43;;
15476;SDS011;7840;42.702;23.296;2023-09-18T13:03:16;6.57;;;4.80;;
15476;SDS011;7840;42.702;23.296;2023-09-18T13:05:43;5.15;;;4.65;;
15476;SDS011;7840;42.702;23.296;2023-09-18T13:08:12;5.78;;;4.32;;
15476;SDS011;7840;42.702;23.296;2023-09-18T13:10:42;5.32;;;4.75;;
15476;SDS011;7840;42.702;23.296;2023-09-18T13:13:15;6.13;;;4.55;;
15476;SDS011;7840;42.702;23.296;2023-09-18T13:15:44;5.93;;;4.43;;
15476;SDS011;7840;42.702;23.296;2023-09-18T13:18:13;5.57;;;4.75;;
15476;SDS011;7840;42.702;23.296;2023-09-18T13:20:41;5.53;;;5.03;;
15476;SDS011;7840;42.702;23.296;2023-09-18T13:23:10;5.45;;;4.38;;
15476;SDS011;7840;42.702;23.296;2023-09-18T13:25:38;9.50;;;5.35;;
15476;SDS011;7840;42.702;23.296;2023-09-18T13:28:10;10.25;;;5.30;;
15476;SDS011;7840;42.702;23.296;2023-09-18T13:30:39;5.93;;;5.22;;
15476;SDS011;7840;42.702;23.296;2023-09-18T13:33:08;8.77;;;5.07;;
15476;SDS011;7840;42.702;23.296;2023-09-18T13:35:37;7.22;;;4.68;;
15476;SDS011;7840;42.702;23.296;2023-09-18T13:38:06;5.28;;;4.50;;
15476;SDS011;7840;42.702;23.296;2023-09-18T13:40:34;6.05;;;4.82;;
15476;SDS011;7840;42.702;23.296;2023-09-18T13:43:02;5.97;;;4.85;;
15476;SDS011;7840;42.702;23.296;2023-09-18T13:45:32;7.18;;;5.18;;
15476;SDS011;7840;42.702;23.296;2023-09-18T13:48:00;6.63;;;4.60;;
15476;SDS011;7840;42.702;23.296;2023-09-18T13:50:28;5.95;;;4.60;;
15476;SDS011;7840;42.702;23.296;2023-09-18T13:52:56;8.93;;;4.75;;
15476;SDS011;7840;42.702;23.296;2023-09-18T13:55:24;8.05;;;5.15;;
15476;SDS011;7840;42.702;23.296;2023-09-18T13:57:52;7.45;;;4.32;;
15476;SDS011;7840;42.702;23.296;2023-09-18T14:00:19;5.57;;;4.63;;
15476;SDS011;7840;42.702;23.296;2023-09-18T14:02:49;6.95;;;4.47;;
15476;SDS011;7840;42.702;23.296;2023-09-18T14:05:17;6.38;;;4.30;;
15476;SDS011;7840;42.702;23.296;2023-09-18T14:07:44;10.70;;;5.07;;
15476;SDS011;7840;42.702;23.296;2023-09-18T14:10:12;5.80;;;4.97;;
15476;SDS011;7840;42.702;23.296;2023-09-18T14:12:43;5.63;;;4.95;;
15476;SDS011;7840;42.702;23.296;2023-09-18T14:15:10;4.95;;;4.55;;
15476;SDS011;7840;42.702;23.296;2023-09-18T14:17:38;9.77;;;4.28;;
15476;SDS011;7840;42.702;23.296;2023-09-18T14:20:08;5.40;;;4.55;;
15476;SDS011;7840;42.702;23.296;2023-09-18T14:22:35;8.98;;;4.97;;
15476;SDS011;7840;42.702;23.296;2023-09-18T14:25:03;9.52;;;4.50;;
15476;SDS011;7840;42.702;23.296;2023-09-18T14:27:31;8.13;;;4.45;;
15476;SDS011;7840;42.702;23.296;2023-09-18T14:30:00;4.85;;;4.45;;
15476;SDS011;7840;42.702;23.296;2023-09-18T14:32:31;5.95;;;4.60;;
15476;SDS011;7840;42.702;23.296;2023-09-18T14:34:58;9.10;;;4.97;;
15476;SDS011;7840;42.702;23.296;2023-09-18T14:37:29;6.72;;;4.78;;
15476;SDS011;7840;42.702;23.296;2023-09-18T14:39:56;7.93;;;4.25;;
15476;SDS011;7840;42.702;23.296;2023-09-18T14:42:24;6.20;;;5.13;;
15476;SDS011;7840;42.702;23.296;2023-09-18T14:44:52;5.45;;;4.43;;
15476;SDS011;7840;42.702;23.296;2023-09-18T14:47:19;5.18;;;4.68;;